Decoded Metar for SLOR (ORURO in BOLIVIA) (IATA:N/A) | Meteo·Mobile Aviation Weather
aviador You're here:

SLOR Decoded Metar

ORURO in BOLIVIA
Report Time2018-09-19 15:00:00
UTC Time2018-09-19 15:15:55
Flight Rules vfr VFR
Wind100° at 04 kt
W.Decomp.*RWY 09: 3.8 kt HW 1.1 kt RCW
RWY 19: 0.4 kt HW 4 kt LCW
W.Rank100° ranks 27
Current wind is below 100° avg. (8.5)
Visibility9999 m
Phenomena:N/A
Clouds:N/A
Expected CloudBase > 4,800 ft AGL from Temp-Dew spread
CeilingNone
Temp14°C (ISA +23)
Dew Point02°C (44% RH)
AAT10.9°C
QNH1036 hPa
Density Alt14,124 ft
Elevation12,146 ft
Report Wrong Elevation
Raw Report
SLOR 191500Z 10004KT 9999 NSC 14/02 Q1036=

Extra information for SLOR:More info

Metar Taf Metar & Taf Last 4 Metars F.Rules Stats Wind Profile Meteogram Temp Stats Airport Information Weather charts Add Link Nearby VenuesMetar ALERT Operation Metar Decoded Social comments